Predmore, Minnesota
Current Conditions -  °F | °C
As of 11:34 PM on Sunday 19 Oct 2014 (Local Time) from K9MN Reporting Station
Clear Clear  
Wind Chill: 56°   Ceiling: Unl
Heat Index: 56°   Visibility: 10mi
Dew Point: 40°   Wind: 12mph
Humidity: 53%   Direction: 280°W
Pressure: 29.84"   Gusts: NA
Location:  44.0209°N, 92.2585°W
Report Text: K9MN 200434Z AUTO 28010KT 10SM CLR 14/04 A2984 RMK AO1 T01350042
Loading
Personal Weather Stations






























Interactive Weather Map
Tropical Storm Tracking
New forecast layout! Learn more

10-Day Weather Forecast

Advertisements
Track Severe Weather on mobile